sensor_id;sensor_type;location;lat;lon;timestamp;temperature;humidity
31783;DHT22;18351;47.560;9.708;2022-11-20T00:01:05;7.10;99.90
31783;DHT22;18351;47.560;9.708;2022-11-20T00:03:31;7.20;99.90
31783;DHT22;18351;47.560;9.708;2022-11-20T00:06:16;7.20;99.90
31783;DHT22;18351;47.560;9.708;2022-11-20T00:08:42;7.20;99.90
31783;DHT22;18351;47.560;9.708;2022-11-20T00:11:11;7.20;99.90
31783;DHT22;18351;47.560;9.708;2022-11-20T00:13:37;7.20;99.90
31783;DHT22;18351;47.560;9.708;2022-11-20T00:16:05;7.30;99.90
31783;DHT22;18351;47.560;9.708;2022-11-20T00:18:32;7.30;99.90
31783;DHT22;18351;47.560;9.708;2022-11-20T00:21:15;7.30;99.90
31783;DHT22;18351;47.560;9.708;2022-11-20T00:23:41;7.30;99.90
31783;DHT22;18351;47.560;9.708;2022-11-20T00:26:10;7.30;99.90
31783;DHT22;18351;47.560;9.708;2022-11-20T00:28:36;7.30;99.90
31783;DHT22;18351;47.560;9.708;2022-11-20T00:31:11;7.30;99.90
31783;DHT22;18351;47.560;9.708;2022-11-20T00:33:36;7.40;99.90
31783;DHT22;18351;47.560;9.708;2022-11-20T00:36:07;7.40;99.90
31783;DHT22;18351;47.560;9.708;2022-11-20T00:38:34;7.40;99.90
31783;DHT22;18351;47.560;9.708;2022-11-20T00:41:02;7.40;99.90
31783;DHT22;18351;47.560;9.708;2022-11-20T00:43:28;7.40;99.90
31783;DHT22;18351;47.560;9.708;2022-11-20T00:46:01;7.40;99.90
31783;DHT22;18351;47.560;9.708;2022-11-20T00:48:27;7.40;99.90
31783;DHT22;18351;47.560;9.708;2022-11-20T00:50:53;7.40;99.90
31783;DHT22;18351;47.560;9.708;2022-11-20T00:53:19;7.40;99.90
31783;DHT22;18351;47.560;9.708;2022-11-20T00:56:05;7.40;99.90
31783;DHT22;18351;47.560;9.708;2022-11-20T00:58:36;7.40;99.90
31783;DHT22;18351;47.560;9.708;2022-11-20T01:01:06;7.40;99.90
31783;DHT22;18351;47.560;9.708;2022-11-20T01:03:33;7.40;99.90
31783;DHT22;18351;47.560;9.708;2022-11-20T01:06:03;7.40;99.90
31783;DHT22;18351;47.560;9.708;2022-11-20T01:08:35;7.40;99.90
31783;DHT22;18351;47.560;9.708;2022-11-20T01:11:07;7.40;99.90
31783;DHT22;18351;47.560;9.708;2022-11-20T01:13:33;7.40;99.90
31783;DHT22;18351;47.560;9.708;2022-11-20T01:16:20;7.30;99.90
31783;DHT22;18351;47.560;9.708;2022-11-20T01:18:49;7.30;99.90
31783;DHT22;18351;47.560;9.708;2022-11-20T01:21:27;7.20;99.90
31783;DHT22;18351;47.560;9.708;2022-11-20T01:23:53;7.20;99.90
31783;DHT22;18351;47.560;9.708;2022-11-20T01:26:21;7.20;99.90
31783;DHT22;18351;47.560;9.708;2022-11-20T01:28:47;7.20;99.90
31783;DHT22;18351;47.560;9.708;2022-11-20T01:31:13;7.20;99.90
31783;DHT22;18351;47.560;9.708;2022-11-20T01:33:40;7.20;99.90
31783;DHT22;18351;47.560;9.708;2022-11-20T01:36:07;7.10;99.90
31783;DHT22;18351;47.560;9.708;2022-11-20T01:38:33;7.10;99.90
31783;DHT22;18351;47.560;9.708;2022-11-20T01:40:59;7.10;99.90
31783;DHT22;18351;47.560;9.708;2022-11-20T01:43:25;7.10;99.90
31783;DHT22;18351;47.560;9.708;2022-11-20T01:46:04;7.10;99.90
31783;DHT22;18351;47.560;9.708;2022-11-20T01:48:47;7.10;99.90
31783;DHT22;18351;47.560;9.708;2022-11-20T01:51:39;7.10;99.90
31783;DHT22;18351;47.560;9.708;2022-11-20T01:54:09;7.20;99.90
31783;DHT22;18351;47.560;9.708;2022-11-20T01:56:40;7.10;99.90
31783;DHT22;18351;47.560;9.708;2022-11-20T01:59:07;7.10;99.90
31783;DHT22;18351;47.560;9.708;2022-11-20T02:01:33;7.10;99.90
31783;DHT22;18351;47.560;9.708;2022-11-20T02:04:00;7.10;99.90
31783;DHT22;18351;47.560;9.708;2022-11-20T02:08:54;7.00;99.90
31783;DHT22;18351;47.560;9.708;2022-11-20T02:11:20;7.00;99.90
31783;DHT22;18351;47.560;9.708;2022-11-20T02:13:46;7.00;99.90
31783;DHT22;18351;47.560;9.708;2022-11-20T02:16:24;7.00;99.90
31783;DHT22;18351;47.560;9.708;2022-11-20T02:18:51;7.00;99.90
31783;DHT22;18351;47.560;9.708;2022-11-20T02:21:39;7.00;99.90
31783;DHT22;18351;47.560;9.708;2022-11-20T02:24:11;7.00;99.90
31783;DHT22;18351;47.560;9.708;2022-11-20T02:26:43;7.00;99.90
31783;DHT22;18351;47.560;9.708;2022-11-20T02:29:10;7.00;99.90
31783;DHT22;18351;47.560;9.708;2022-11-20T02:31:41;6.90;99.90
31783;DHT22;18351;47.560;9.708;2022-11-20T02:34:07;6.90;99.90
31783;DHT22;18351;47.560;9.708;2022-11-20T02:36:34;7.00;99.90
31783;DHT22;18351;47.560;9.708;2022-11-20T02:39:02;6.90;99.90
31783;DHT22;18351;47.560;9.708;2022-11-20T02:41:36;7.00;99.90
31783;DHT22;18351;47.560;9.708;2022-11-20T02:44:03;7.00;99.90
31783;DHT22;18351;47.560;9.708;2022-11-20T02:46:29;7.00;99.90
31783;DHT22;18351;47.560;9.708;2022-11-20T02:48:55;6.90;99.90
31783;DHT22;18351;47.560;9.708;2022-11-20T02:51:21;6.90;99.90
31783;DHT22;18351;47.560;9.708;2022-11-20T02:53:46;6.90;99.90
31783;DHT22;18351;47.560;9.708;2022-11-20T02:56:12;6.90;99.90
31783;DHT22;18351;47.560;9.708;2022-11-20T02:58:38;7.00;99.90
31783;DHT22;18351;47.560;9.708;2022-11-20T03:01:03;7.00;99.90
31783;DHT22;18351;47.560;9.708;2022-11-20T03:03:29;7.00;99.90
31783;DHT22;18351;47.560;9.708;2022-11-20T03:05:54;7.00;99.90
31783;DHT22;18351;47.560;9.708;2022-11-20T03:08:20;7.00;99.90
31783;DHT22;18351;47.560;9.708;2022-11-20T03:10:45;7.10;99.90
31783;DHT22;18351;47.560;9.708;2022-11-20T03:13:11;7.10;99.90
31783;DHT22;18351;47.560;9.708;2022-11-20T03:15:37;7.10;99.90
31783;DHT22;18351;47.560;9.708;2022-11-20T03:18:03;7.10;99.90
31783;DHT22;18351;47.560;9.708;2022-11-20T03:20:28;7.10;99.90
31783;DHT22;18351;47.560;9.708;2022-11-20T03:22:54;7.10;99.90
31783;DHT22;18351;47.560;9.708;2022-11-20T03:25:21;7.20;99.90
31783;DHT22;18351;47.560;9.708;2022-11-20T03:27:46;7.10;99.90
31783;DHT22;18351;47.560;9.708;2022-11-20T03:30:13;7.20;99.90
31783;DHT22;18351;47.560;9.708;2022-11-20T03:32:38;7.10;99.90
31783;DHT22;18351;47.560;9.708;2022-11-20T03:35:04;7.10;99.90
31783;DHT22;18351;47.560;9.708;2022-11-20T03:37:30;7.20;99.90
31783;DHT22;18351;47.560;9.708;2022-11-20T03:39:56;7.20;99.90
31783;DHT22;18351;47.560;9.708;2022-11-20T03:42:22;7.20;99.90
31783;DHT22;18351;47.560;9.708;2022-11-20T03:45:06;7.20;99.90
31783;DHT22;18351;47.560;9.708;2022-11-20T03:47:32;7.20;99.90
31783;DHT22;18351;47.560;9.708;2022-11-20T03:49:58;7.20;99.90
31783;DHT22;18351;47.560;9.708;2022-11-20T03:52:23;7.20;99.90
31783;DHT22;18351;47.560;9.708;2022-11-20T03:54:49;7.20;99.90
31783;DHT22;18351;47.560;9.708;2022-11-20T03:57:15;7.20;99.90
31783;DHT22;18351;47.560;9.708;2022-11-20T03:59:40;7.20;99.90
31783;DHT22;18351;47.560;9.708;2022-11-20T04:02:06;7.20;99.90
31783;DHT22;18351;47.560;9.708;2022-11-20T04:04:31;7.20;99.90
31783;DHT22;18351;47.560;9.708;2022-11-20T04:06:57;7.20;99.90
31783;DHT22;18351;47.560;9.708;2022-11-20T04:09:22;7.20;99.90
31783;DHT22;18351;47.560;9.708;2022-11-20T04:11:48;7.20;99.90
31783;DHT22;18351;47.560;9.708;2022-11-20T04:14:15;7.30;99.90
31783;DHT22;18351;47.560;9.708;2022-11-20T04:16:42;7.20;99.90
31783;DHT22;18351;47.560;9.708;2022-11-20T04:19:15;7.20;99.90
31783;DHT22;18351;47.560;9.708;2022-11-20T04:21:41;7.20;99.90
31783;DHT22;18351;47.560;9.708;2022-11-20T04:24:07;7.20;99.90
31783;DHT22;18351;47.560;9.708;2022-11-20T04:26:34;7.20;99.90
31783;DHT22;18351;47.560;9.708;2022-11-20T04:29:00;7.20;99.90
31783;DHT22;18351;47.560;9.708;2022-11-20T04:31:30;7.20;99.90
31783;DHT22;18351;47.560;9.708;2022-11-20T04:34:03;7.20;99.90
31783;DHT22;18351;47.560;9.708;2022-11-20T04:36:30;7.20;99.90
31783;DHT22;18351;47.560;9.708;2022-11-20T04:38:57;7.20;99.90
31783;DHT22;18351;47.560;9.708;2022-11-20T04:41:25;7.20;99.90
31783;DHT22;18351;47.560;9.708;2022-11-20T04:43:54;7.10;99.90
31783;DHT22;18351;47.560;9.708;2022-11-20T04:46:25;7.10;99.90
31783;DHT22;18351;47.560;9.708;2022-11-20T04:48:51;7.00;99.90
31783;DHT22;18351;47.560;9.708;2022-11-20T04:51:16;7.00;99.90
31783;DHT22;18351;47.560;9.708;2022-11-20T04:53:42;7.10;99.90
31783;DHT22;18351;47.560;9.708;2022-11-20T04:56:10;7.10;99.90
31783;DHT22;18351;47.560;9.708;2022-11-20T04:58:36;7.00;99.90
31783;DHT22;18351;47.560;9.708;2022-11-20T05:01:07;7.00;99.90
31783;DHT22;18351;47.560;9.708;2022-11-20T05:03:33;7.00;99.90
31783;DHT22;18351;47.560;9.708;2022-11-20T05:06:03;7.00;99.90
31783;DHT22;18351;47.560;9.708;2022-11-20T05:08:30;7.00;99.90
31783;DHT22;18351;47.560;9.708;2022-11-20T05:11:03;7.00;99.90
31783;DHT22;18351;47.560;9.708;2022-11-20T05:13:30;7.00;99.90
31783;DHT22;18351;47.560;9.708;2022-11-20T05:15:55;7.00;99.90
31783;DHT22;18351;47.560;9.708;2022-11-20T05:18:25;7.00;99.90
31783;DHT22;18351;47.560;9.708;2022-11-20T05:20:55;7.00;99.90
31783;DHT22;18351;47.560;9.708;2022-11-20T05:23:21;7.10;99.90
31783;DHT22;18351;47.560;9.708;2022-11-20T05:25:46;7.10;99.90
31783;DHT22;18351;47.560;9.708;2022-11-20T05:28:12;7.10;99.90
31783;DHT22;18351;47.560;9.708;2022-11-20T05:30:37;7.10;99.90
31783;DHT22;18351;47.560;9.708;2022-11-20T05:33:03;7.10;99.90
31783;DHT22;18351;47.560;9.708;2022-11-20T05:35:28;7.20;99.90
31783;DHT22;18351;47.560;9.708;2022-11-20T05:37:54;7.20;99.90
31783;DHT22;18351;47.560;9.708;2022-11-20T05:40:20;7.20;99.90
31783;DHT22;18351;47.560;9.708;2022-11-20T05:42:45;7.20;99.90
31783;DHT22;18351;47.560;9.708;2022-11-20T05:45:11;7.20;99.90
31783;DHT22;18351;47.560;9.708;2022-11-20T05:47:36;7.20;99.90
31783;DHT22;18351;47.560;9.708;2022-11-20T05:50:02;7.20;99.90
31783;DHT22;18351;47.560;9.708;2022-11-20T05:52:28;7.30;99.90
31783;DHT22;18351;47.560;9.708;2022-11-20T05:54:54;7.30;99.90
31783;DHT22;18351;47.560;9.708;2022-11-20T05:57:20;7.30;99.90
31783;DHT22;18351;47.560;9.708;2022-11-20T05:59:45;7.20;99.90
31783;DHT22;18351;47.560;9.708;2022-11-20T06:02:11;7.20;99.90
31783;DHT22;18351;47.560;9.708;2022-11-20T06:04:36;7.20;99.90
31783;DHT22;18351;47.560;9.708;2022-11-20T06:07:02;7.30;99.90
31783;DHT22;18351;47.560;9.708;2022-11-20T06:09:29;7.30;99.90
31783;DHT22;18351;47.560;9.708;2022-11-20T06:11:55;7.30;99.90
31783;DHT22;18351;47.560;9.708;2022-11-20T06:14:20;7.30;99.90
31783;DHT22;18351;47.560;9.708;2022-11-20T06:16:46;7.30;99.90
31783;DHT22;18351;47.560;9.708;2022-11-20T06:19:11;7.30;99.90
31783;DHT22;18351;47.560;9.708;2022-11-20T06:21:37;7.30;99.90
31783;DHT22;18351;47.560;9.708;2022-11-20T06:24:03;7.30;99.90
31783;DHT22;18351;47.560;9.708;2022-11-20T06:26:28;7.30;99.90
31783;DHT22;18351;47.560;9.708;2022-11-20T06:28:55;7.30;99.90
31783;DHT22;18351;47.560;9.708;2022-11-20T06:31:25;7.30;99.90
31783;DHT22;18351;47.560;9.708;2022-11-20T06:33:50;7.30;99.90
31783;DHT22;18351;47.560;9.708;2022-11-20T06:36:19;7.30;99.90
31783;DHT22;18351;47.560;9.708;2022-11-20T06:38:45;7.40;99.90
31783;DHT22;18351;47.560;9.708;2022-11-20T06:41:13;7.40;99.90
31783;DHT22;18351;47.560;9.708;2022-11-20T06:43:39;7.40;99.90
31783;DHT22;18351;47.560;9.708;2022-11-20T06:46:05;7.40;99.90
31783;DHT22;18351;47.560;9.708;2022-11-20T06:48:30;7.40;99.90
31783;DHT22;18351;47.560;9.708;2022-11-20T06:50:58;7.40;99.90
31783;DHT22;18351;47.560;9.708;2022-11-20T06:53:24;7.50;99.90
31783;DHT22;18351;47.560;9.708;2022-11-20T06:55:51;7.50;99.90
31783;DHT22;18351;47.560;9.708;2022-11-20T06:58:17;7.50;99.90
31783;DHT22;18351;47.560;9.708;2022-11-20T07:00:43;7.50;99.90
31783;DHT22;18351;47.560;9.708;2022-11-20T07:03:10;7.50;99.90
31783;DHT22;18351;47.560;9.708;2022-11-20T07:05:37;7.40;99.90
31783;DHT22;18351;47.560;9.708;2022-11-20T07:08:04;7.50;99.90
31783;DHT22;18351;47.560;9.708;2022-11-20T07:10:30;7.60;99.90
31783;DHT22;18351;47.560;9.708;2022-11-20T07:12:56;7.60;99.90
31783;DHT22;18351;47.560;9.708;2022-11-20T07:15:23;7.60;99.90
31783;DHT22;18351;47.560;9.708;2022-11-20T07:17:49;7.60;99.90
31783;DHT22;18351;47.560;9.708;2022-11-20T07:20:15;7.60;99.90
31783;DHT22;18351;47.560;9.708;2022-11-20T07:22:41;7.60;99.90
31783;DHT22;18351;47.560;9.708;2022-11-20T07:25:07;7.60;99.90
31783;DHT22;18351;47.560;9.708;2022-11-20T07:27:32;7.60;99.90
31783;DHT22;18351;47.560;9.708;2022-11-20T07:29:58;7.70;99.90
31783;DHT22;18351;47.560;9.708;2022-11-20T07:32:24;7.70;99.90
31783;DHT22;18351;47.560;9.708;2022-11-20T07:34:49;7.70;99.90
31783;DHT22;18351;47.560;9.708;2022-11-20T07:37:15;7.80;99.90
31783;DHT22;18351;47.560;9.708;2022-11-20T07:39:41;7.80;99.90
31783;DHT22;18351;47.560;9.708;2022-11-20T07:42:07;7.80;99.90
31783;DHT22;18351;47.560;9.708;2022-11-20T07:44:34;7.80;99.90
31783;DHT22;18351;47.560;9.708;2022-11-20T07:46:59;7.80;99.90
31783;DHT22;18351;47.560;9.708;2022-11-20T07:49:25;7.90;99.90
31783;DHT22;18351;47.560;9.708;2022-11-20T07:51:51;7.90;99.90
31783;DHT22;18351;47.560;9.708;2022-11-20T07:54:19;7.90;99.90
31783;DHT22;18351;47.560;9.708;2022-11-20T07:56:44;7.90;99.90
31783;DHT22;18351;47.560;9.708;2022-11-20T07:59:10;8.00;99.90
31783;DHT22;18351;47.560;9.708;2022-11-20T08:01:37;8.00;99.90
31783;DHT22;18351;47.560;9.708;2022-11-20T08:04:03;8.00;99.90
31783;DHT22;18351;47.560;9.708;2022-11-20T08:06:28;8.10;99.90
31783;DHT22;18351;47.560;9.708;2022-11-20T08:08:54;8.00;99.90
31783;DHT22;18351;47.560;9.708;2022-11-20T08:11:19;8.00;99.90
31783;DHT22;18351;47.560;9.708;2022-11-20T08:14:04;8.00;99.90
31783;DHT22;18351;47.560;9.708;2022-11-20T08:16:46;8.10;99.90
31783;DHT22;18351;47.560;9.708;2022-11-20T08:19:14;8.10;99.90
31783;DHT22;18351;47.560;9.708;2022-11-20T08:21:40;8.10;99.90
31783;DHT22;18351;47.560;9.708;2022-11-20T08:24:06;8.20;99.90
31783;DHT22;18351;47.560;9.708;2022-11-20T08:26:32;8.20;99.90
31783;DHT22;18351;47.560;9.708;2022-11-20T08:28:59;8.30;99.90
31783;DHT22;18351;47.560;9.708;2022-11-20T08:31:26;8.30;99.90
31783;DHT22;18351;47.560;9.708;2022-11-20T08:33:52;8.40;99.90
31783;DHT22;18351;47.560;9.708;2022-11-20T08:36:18;8.50;99.90
31783;DHT22;18351;47.560;9.708;2022-11-20T08:38:52;8.50;99.90
31783;DHT22;18351;47.560;9.708;2022-11-20T08:41:19;8.60;99.90
31783;DHT22;18351;47.560;9.708;2022-11-20T08:43:57;8.70;99.90
31783;DHT22;18351;47.560;9.708;2022-11-20T08:46:47;8.70;99.90
31783;DHT22;18351;47.560;9.708;2022-11-20T08:49:15;8.80;99.90
31783;DHT22;18351;47.560;9.708;2022-11-20T08:51:41;8.90;99.90
31783;DHT22;18351;47.560;9.708;2022-11-20T08:54:07;9.00;99.90
31783;DHT22;18351;47.560;9.708;2022-11-20T08:56:33;9.10;99.90
31783;DHT22;18351;47.560;9.708;2022-11-20T08:58:59;9.00;99.90
31783;DHT22;18351;47.560;9.708;2022-11-20T09:01:25;9.00;99.90
31783;DHT22;18351;47.560;9.708;2022-11-20T09:03:51;9.00;99.90
31783;DHT22;18351;47.560;9.708;2022-11-20T09:06:17;9.00;99.90
31783;DHT22;18351;47.560;9.708;2022-11-20T09:08:42;9.10;99.90
31783;DHT22;18351;47.560;9.708;2022-11-20T09:11:08;9.10;99.90
31783;DHT22;18351;47.560;9.708;2022-11-20T09:13:35;9.10;99.90
31783;DHT22;18351;47.560;9.708;2022-11-20T09:16:10;9.10;99.90
31783;DHT22;18351;47.560;9.708;2022-11-20T09:18:36;9.10;99.90
31783;DHT22;18351;47.560;9.708;2022-11-20T09:21:09;9.00;99.90
31783;DHT22;18351;47.560;9.708;2022-11-20T09:23:37;8.90;99.90
31783;DHT22;18351;47.560;9.708;2022-11-20T09:26:13;8.90;99.90
31783;DHT22;18351;47.560;9.708;2022-11-20T09:28:39;8.80;99.90
31783;DHT22;18351;47.560;9.708;2022-11-20T09:31:07;8.80;99.90
31783;DHT22;18351;47.560;9.708;2022-11-20T09:33:32;8.80;99.90
31783;DHT22;18351;47.560;9.708;2022-11-20T09:35:58;8.80;99.90
31783;DHT22;18351;47.560;9.708;2022-11-20T09:38:24;8.90;99.90
31783;DHT22;18351;47.560;9.708;2022-11-20T09:40:57;8.90;99.90
31783;DHT22;18351;47.560;9.708;2022-11-20T09:43:42;9.00;99.90
31783;DHT22;18351;47.560;9.708;2022-11-20T09:46:21;9.00;99.90
31783;DHT22;18351;47.560;9.708;2022-11-20T09:51:58;9.20;99.90
31783;DHT22;18351;47.560;9.708;2022-11-20T09:54:37;9.30;99.90
31783;DHT22;18351;47.560;9.708;2022-11-20T09:57:05;9.40;99.90
31783;DHT22;18351;47.560;9.708;2022-11-20T10:02:55;9.70;99.90
31783;DHT22;18351;47.560;9.708;2022-11-20T10:05:22;9.70;99.90
31783;DHT22;18351;47.560;9.708;2022-11-20T10:10:44;9.70;99.90
31783;DHT22;18351;47.560;9.708;2022-11-20T10:13:39;9.70;99.90
31783;DHT22;18351;47.560;9.708;2022-11-20T10:30:06;9.40;99.90
31783;DHT22;18351;47.560;9.708;2022-11-20T10:32:38;9.40;99.90
31783;DHT22;18351;47.560;9.708;2022-11-20T10:35:49;9.40;99.90
31783;DHT22;18351;47.560;9.708;2022-11-20T10:38:00;9.30;99.90
31783;DHT22;18351;47.560;9.708;2022-11-20T10:40:49;9.30;99.90
31783;DHT22;18351;47.560;9.708;2022-11-20T10:43:32;9.30;99.90
31783;DHT22;18351;47.560;9.708;2022-11-20T10:46:02;9.30;99.90
31783;DHT22;18351;47.560;9.708;2022-11-20T10:48:31;9.30;99.90
31783;DHT22;18351;47.560;9.708;2022-11-20T10:51:13;9.30;99.90
31783;DHT22;18351;47.560;9.708;2022-11-20T10:56:51;9.40;99.90
31783;DHT22;18351;47.560;9.708;2022-11-20T10:59:41;9.40;99.90
31783;DHT22;18351;47.560;9.708;2022-11-20T11:02:22;9.40;99.90
31783;DHT22;18351;47.560;9.708;2022-11-20T11:04:52;9.40;99.90
31783;DHT22;18351;47.560;9.708;2022-11-20T11:07:24;9.50;99.90
31783;DHT22;18351;47.560;9.708;2022-11-20T11:09:55;9.50;99.90
31783;DHT22;18351;47.560;9.708;2022-11-20T11:12:23;9.50;99.90
31783;DHT22;18351;47.560;9.708;2022-11-20T11:14:52;9.40;99.90
31783;DHT22;18351;47.560;9.708;2022-11-20T11:17:32;9.40;99.90
31783;DHT22;18351;47.560;9.708;2022-11-20T11:20:14;9.50;99.90
31783;DHT22;18351;47.560;9.708;2022-11-20T11:23:22;9.50;99.90
31783;DHT22;18351;47.560;9.708;2022-11-20T11:25:58;9.40;99.90
31783;DHT22;18351;47.560;9.708;2022-11-20T11:28:25;9.40;99.90
31783;DHT22;18351;47.560;9.708;2022-11-20T11:30:52;9.30;99.90
31783;DHT22;18351;47.560;9.708;2022-11-20T11:33:27;9.30;99.90
31783;DHT22;18351;47.560;9.708;2022-11-20T11:36:17;9.30;99.90
31783;DHT22;18351;47.560;9.708;2022-11-20T11:38:44;9.40;99.90
31783;DHT22;18351;47.560;9.708;2022-11-20T11:41:16;9.40;99.90
31783;DHT22;18351;47.560;9.708;2022-11-20T11:43:54;9.40;99.90
31783;DHT22;18351;47.560;9.708;2022-11-20T11:46:41;9.50;99.90
31783;DHT22;18351;47.560;9.708;2022-11-20T11:54:52;9.40;99.90
31783;DHT22;18351;47.560;9.708;2022-11-20T12:00:10;9.40;99.90
31783;DHT22;18351;47.560;9.708;2022-11-20T12:02:47;9.40;99.90
31783;DHT22;18351;47.560;9.708;2022-11-20T12:08:31;9.50;99.90
31783;DHT22;18351;47.560;9.708;2022-11-20T12:13:53;9.50;99.90
31783;DHT22;18351;47.560;9.708;2022-11-20T12:16:20;9.50;99.90
31783;DHT22;18351;47.560;9.708;2022-11-20T12:18:49;9.40;99.90
31783;DHT22;18351;47.560;9.708;2022-11-20T12:34:43;9.00;99.90
31783;DHT22;18351;47.560;9.708;2022-11-20T12:39:49;9.10;99.90
31783;DHT22;18351;47.560;9.708;2022-11-20T12:42:54;9.10;99.90
31783;DHT22;18351;47.560;9.708;2022-11-20T12:45:54;9.20;99.90
31783;DHT22;18351;47.560;9.708;2022-11-20T12:54:18;9.30;99.90
31783;DHT22;18351;47.560;9.708;2022-11-20T12:59:39;9.40;99.90
31783;DHT22;18351;47.560;9.708;2022-11-20T13:07:24;9.50;99.90
31783;DHT22;18351;47.560;9.708;2022-11-20T13:09:51;9.60;99.90
31783;DHT22;18351;47.560;9.708;2022-11-20T13:17:55;9.80;99.90
31783;DHT22;18351;47.560;9.708;2022-11-20T13:20:23;9.90;99.90
31783;DHT22;18351;47.560;9.708;2022-11-20T13:22:53;9.90;99.90
31783;DHT22;18351;47.560;9.708;2022-11-20T13:25:29;9.90;99.90
31783;DHT22;18351;47.560;9.708;2022-11-20T13:27:57;10.00;99.90
31783;DHT22;18351;47.560;9.708;2022-11-20T13:30:27;10.00;99.90
31783;DHT22;18351;47.560;9.708;2022-11-20T13:32:56;10.10;99.90
31783;DHT22;18351;47.560;9.708;2022-11-20T13:35:33;10.10;99.90
31783;DHT22;18351;47.560;9.708;2022-11-20T13:38:14;10.10;99.90
31783;DHT22;18351;47.560;9.708;2022-11-20T13:40:56;10.10;99.90
31783;DHT22;18351;47.560;9.708;2022-11-20T13:46:00;10.20;99.90
31783;DHT22;18351;47.560;9.708;2022-11-20T13:48:29;10.20;99.90
31783;DHT22;18351;47.560;9.708;2022-11-20T13:51:15;10.20;99.90
31783;DHT22;18351;47.560;9.708;2022-11-20T13:57:08;10.00;99.90
31783;DHT22;18351;47.560;9.708;2022-11-20T14:02:02;9.90;99.90
31783;DHT22;18351;47.560;9.708;2022-11-20T14:04:34;10.00;98.80
31783;DHT22;18351;47.560;9.708;2022-11-20T14:07:01;10.00;98.50
31783;DHT22;18351;47.560;9.708;2022-11-20T14:09:32;10.00;98.00
31783;DHT22;18351;47.560;9.708;2022-11-20T14:11:58;10.10;97.80
31783;DHT22;18351;47.560;9.708;2022-11-20T14:14:26;10.10;98.30
31783;DHT22;18351;47.560;9.708;2022-11-20T14:17:03;10.20;97.30
31783;DHT22;18351;47.560;9.708;2022-11-20T14:19:30;10.20;98.00
31783;DHT22;18351;47.560;9.708;2022-11-20T14:24:36;10.30;96.30
31783;DHT22;18351;47.560;9.708;2022-11-20T14:27:02;10.30;97.60
31783;DHT22;18351;47.560;9.708;2022-11-20T14:29:33;10.40;96.50
31783;DHT22;18351;47.560;9.708;2022-11-20T14:32:01;10.40;96.60
31783;DHT22;18351;47.560;9.708;2022-11-20T14:34:30;10.60;95.90
31783;DHT22;18351;47.560;9.708;2022-11-20T14:37:04;10.50;96.70
31783;DHT22;18351;47.560;9.708;2022-11-20T14:39:41;10.40;96.90
31783;DHT22;18351;47.560;9.708;2022-11-20T14:42:25;10.30;96.40
31783;DHT22;18351;47.560;9.708;2022-11-20T14:44:51;10.20;96.70
31783;DHT22;18351;47.560;9.708;2022-11-20T14:47:21;10.10;97.90
31783;DHT22;18351;47.560;9.708;2022-11-20T14:49:48;10.10;98.50
31783;DHT22;18351;47.560;9.708;2022-11-20T14:52:16;10.10;99.00
31783;DHT22;18351;47.560;9.708;2022-11-20T14:54:50;10.00;97.80
31783;DHT22;18351;47.560;9.708;2022-11-20T14:59:47;9.80;97.80
31783;DHT22;18351;47.560;9.708;2022-11-20T15:02:13;9.70;98.70
31783;DHT22;18351;47.560;9.708;2022-11-20T15:04:50;9.60;99.50
31783;DHT22;18351;47.560;9.708;2022-11-20T15:07:28;9.50;99.90
31783;DHT22;18351;47.560;9.708;2022-11-20T15:10:08;9.40;99.90
31783;DHT22;18351;47.560;9.708;2022-11-20T15:15:43;9.10;99.90
31783;DHT22;18351;47.560;9.708;2022-11-20T15:18:04;9.00;99.90
31783;DHT22;18351;47.560;9.708;2022-11-20T15:20:35;8.80;99.90
31783;DHT22;18351;47.560;9.708;2022-11-20T15:23:01;8.80;99.90
31783;DHT22;18351;47.560;9.708;2022-11-20T15:25:27;8.60;99.90
31783;DHT22;18351;47.560;9.708;2022-11-20T15:27:56;8.60;99.90
31783;DHT22;18351;47.560;9.708;2022-11-20T15:30:22;8.50;99.90
31783;DHT22;18351;47.560;9.708;2022-11-20T15:32:47;8.40;99.90
31783;DHT22;18351;47.560;9.708;2022-11-20T15:35:15;8.30;99.90
31783;DHT22;18351;47.560;9.708;2022-11-20T15:37:41;8.20;99.90
31783;DHT22;18351;47.560;9.708;2022-11-20T15:40:07;8.10;99.90
31783;DHT22;18351;47.560;9.708;2022-11-20T15:42:34;8.10;99.90
31783;DHT22;18351;47.560;9.708;2022-11-20T15:45:00;8.00;99.90
31783;DHT22;18351;47.560;9.708;2022-11-20T15:47:28;8.00;99.90
31783;DHT22;18351;47.560;9.708;2022-11-20T15:49:55;7.90;99.90
31783;DHT22;18351;47.560;9.708;2022-11-20T15:52:21;7.80;99.90
31783;DHT22;18351;47.560;9.708;2022-11-20T15:54:46;7.70;99.90
31783;DHT22;18351;47.560;9.708;2022-11-20T15:57:12;7.50;99.90
31783;DHT22;18351;47.560;9.708;2022-11-20T15:59:38;7.40;99.90
31783;DHT22;18351;47.560;9.708;2022-11-20T16:02:14;7.20;99.90
31783;DHT22;18351;47.560;9.708;2022-11-20T16:04:40;7.10;99.90
31783;DHT22;18351;47.560;9.708;2022-11-20T16:07:06;6.80;99.90
31783;DHT22;18351;47.560;9.708;2022-11-20T16:09:31;6.70;99.90
31783;DHT22;18351;47.560;9.708;2022-11-20T16:11:58;6.50;99.90
31783;DHT22;18351;47.560;9.708;2022-11-20T16:14:25;6.40;99.90
31783;DHT22;18351;47.560;9.708;2022-11-20T16:17:09;6.20;99.90
31783;DHT22;18351;47.560;9.708;2022-11-20T16:19:35;6.20;99.90
31783;DHT22;18351;47.560;9.708;2022-11-20T16:22:00;6.10;99.90
31783;DHT22;18351;47.560;9.708;2022-11-20T16:24:26;6.20;99.90
31783;DHT22;18351;47.560;9.708;2022-11-20T16:26:55;6.00;99.90
31783;DHT22;18351;47.560;9.708;2022-11-20T16:29:21;6.10;99.90
31783;DHT22;18351;47.560;9.708;2022-11-20T16:31:47;6.00;99.90
31783;DHT22;18351;47.560;9.708;2022-11-20T16:34:15;6.10;99.90
31783;DHT22;18351;47.560;9.708;2022-11-20T16:36:41;6.00;99.90
31783;DHT22;18351;47.560;9.708;2022-11-20T16:39:07;6.00;99.90
31783;DHT22;18351;47.560;9.708;2022-11-20T16:41:33;6.00;99.90
31783;DHT22;18351;47.560;9.708;2022-11-20T16:44:01;6.00;99.90
31783;DHT22;18351;47.560;9.708;2022-11-20T16:46:30;6.00;99.90
31783;DHT22;18351;47.560;9.708;2022-11-20T16:51:23;6.00;99.90
31783;DHT22;18351;47.560;9.708;2022-11-20T16:53:49;5.80;99.90
31783;DHT22;18351;47.560;9.708;2022-11-20T16:56:19;5.90;99.90
31783;DHT22;18351;47.560;9.708;2022-11-20T16:58:47;5.80;99.90
31783;DHT22;18351;47.560;9.708;2022-11-20T17:01:15;5.70;99.90
31783;DHT22;18351;47.560;9.708;2022-11-20T17:03:43;5.70;99.90
31783;DHT22;18351;47.560;9.708;2022-11-20T17:06:16;5.60;99.90
31783;DHT22;18351;47.560;9.708;2022-11-20T17:08:43;5.60;99.90
31783;DHT22;18351;47.560;9.708;2022-11-20T17:11:11;5.50;99.90
31783;DHT22;18351;47.560;9.708;2022-11-20T17:13:38;5.50;99.90
31783;DHT22;18351;47.560;9.708;2022-11-20T17:16:06;5.50;99.90
31783;DHT22;18351;47.560;9.708;2022-11-20T17:18:32;5.50;99.90
31783;DHT22;18351;47.560;9.708;2022-11-20T17:20:58;5.60;99.90
31783;DHT22;18351;47.560;9.708;2022-11-20T17:23:27;5.50;99.90
31783;DHT22;18351;47.560;9.708;2022-11-20T17:26:09;5.60;99.90
31783;DHT22;18351;47.560;9.708;2022-11-20T17:28:36;5.60;99.90
31783;DHT22;18351;47.560;9.708;2022-11-20T17:31:07;5.60;99.90
31783;DHT22;18351;47.560;9.708;2022-11-20T17:33:35;5.60;99.90
31783;DHT22;18351;47.560;9.708;2022-11-20T17:36:01;5.60;99.90